Huvudsida
METAR-TAF:

METAR-TAF

Flygplatser :

Akeno, Japan

latitud: 34-32N, longitud: 136-41E, höjd: 6 m

Aktuellt väderrapport

Denna rapport gjordes för 17 timmar och 25 minuter sedan, klockan 06:36 UTC
Vind 7 kt från nordväst, varierande mellan väst/nordväst och nord
Temperatur 25°C
Fuktighet 89%
Tryck 1000 hPa
Sikt 10 km eller mer
Få moln på en höjd av 500 ft
Spridda moln på en höjd av 1500 ft
Brutna moln på en höjd av 3500 ft

METAR: RJOE 120636Z 32007KT 290V010 9999 FEW005 SCT015 BKN035 25/23 Q1000 RMK 1ST005 3CU015 6CU035 A2954

Tid: 09:01 (00:01 UTC)


TAF: saknas

Aktuella väderrapporter och prognoser från 4000 flygplatser (METAR- och TAF-rapporter).

De tillgängliga stationerna syns som gula och röda prickar på kartan.

För musen över prickarna för att se namnen på stationerna.

Klicka sedan för att få väderrapporter och prognoser.

För att ändra kartan: Klicka på de gröna knapparna med ett svart kors på för att zooma in; den gröna knappen med ett streck på för att zooma ut; eller på de gröna pilarna för angränsande kartor.


METAR-TAF: